sensor_id;sensor_type;location;lat;lon;timestamp;P1;durP1;ratioP1;P2;durP2;ratioP2
1753;SDS011;58380;48.312;9.246;2024-01-06T07:48:56;4.00;;;1.40;;
1753;SDS011;58380;48.312;9.246;2024-01-06T07:51:56;6.45;;;2.05;;
1753;SDS011;58380;48.312;9.246;2024-01-06T07:54:57;7.80;;;2.70;;
1753;SDS011;58380;48.312;9.246;2024-01-06T07:57:57;5.78;;;2.28;;
1753;SDS011;58380;48.312;9.246;2024-01-06T08:00:57;9.55;;;2.30;;
1753;SDS011;58380;48.312;9.246;2024-01-06T08:03:58;5.88;;;2.90;;
1753;SDS011;58380;48.312;9.246;2024-01-06T08:06:59;10.85;;;2.85;;
1753;SDS011;58380;48.312;9.246;2024-01-06T08:10:00;9.05;;;2.40;;
1753;SDS011;58380;48.312;9.246;2024-01-06T08:13:00;6.93;;;2.70;;
1753;SDS011;58380;48.312;9.246;2024-01-06T08:16:01;7.82;;;3.00;;
1753;SDS011;58380;48.312;9.246;2024-01-06T08:19:01;6.10;;;2.20;;
1753;SDS011;58380;48.312;9.246;2024-01-06T08:22:02;8.20;;;2.20;;
1753;SDS011;58380;48.312;9.246;2024-01-06T08:25:02;5.72;;;1.73;;
1753;SDS011;58380;48.312;9.246;2024-01-06T08:28:06;3.53;;;1.88;;
1753;SDS011;58380;48.312;9.246;2024-01-06T08:31:06;5.38;;;2.15;;
1753;SDS011;58380;48.312;9.246;2024-01-06T08:34:06;6.85;;;2.58;;
1753;SDS011;58380;48.312;9.246;2024-01-06T08:37:07;10.52;;;3.05;;
1753;SDS011;58380;48.312;9.246;2024-01-06T08:40:08;12.27;;;4.82;;
1753;SDS011;58380;48.312;9.246;2024-01-06T08:43:09;10.50;;;4.72;;
1753;SDS011;58380;48.312;9.246;2024-01-06T08:46:10;13.82;;;4.78;;
1753;SDS011;58380;48.312;9.246;2024-01-06T08:49:10;13.15;;;4.55;;
1753;SDS011;58380;48.312;9.246;2024-01-06T08:52:10;5.35;;;2.13;;
1753;SDS011;58380;48.312;9.246;2024-01-06T08:55:11;7.82;;;2.45;;
1753;SDS011;58380;48.312;9.246;2024-01-06T08:58:11;7.00;;;2.40;;
1753;SDS011;58380;48.312;9.246;2024-01-06T09:01:12;7.07;;;2.20;;
1753;SDS011;58380;48.312;9.246;2024-01-06T09:04:13;11.52;;;2.13;;
1753;SDS011;58380;48.312;9.246;2024-01-06T09:07:14;6.32;;;2.00;;
1753;SDS011;58380;48.312;9.246;2024-01-06T09:10:17;5.95;;;2.00;;
1753;SDS011;58380;48.312;9.246;2024-01-06T09:13:18;7.22;;;2.33;;
1753;SDS011;58380;48.312;9.246;2024-01-06T09:16:18;8.25;;;1.77;;
1753;SDS011;58380;48.312;9.246;2024-01-06T09:19:19;4.75;;;1.63;;
1753;SDS011;58380;48.312;9.246;2024-01-06T09:22:20;3.75;;;1.58;;
1753;SDS011;58380;48.312;9.246;2024-01-06T09:25:20;4.03;;;1.20;;
1753;SDS011;58380;48.312;9.246;2024-01-06T09:28:24;3.28;;;1.30;;
1753;SDS011;58380;48.312;9.246;2024-01-06T09:31:24;3.63;;;1.10;;
1753;SDS011;58380;48.312;9.246;2024-01-06T09:34:25;3.75;;;1.10;;
1753;SDS011;58380;48.312;9.246;2024-01-06T09:37:25;2.55;;;0.90;;
1753;SDS011;58380;48.312;9.246;2024-01-06T09:40:25;3.20;;;1.27;;
1753;SDS011;58380;48.312;9.246;2024-01-06T09:43:26;5.65;;;2.42;;
1753;SDS011;58380;48.312;9.246;2024-01-06T09:46:28;4.63;;;1.70;;
1753;SDS011;58380;48.312;9.246;2024-01-06T09:49:29;4.80;;;1.55;;
1753;SDS011;58380;48.312;9.246;2024-01-06T09:52:32;4.55;;;1.67;;
1753;SDS011;58380;48.312;9.246;2024-01-06T09:55:35;4.63;;;1.30;;
1753;SDS011;58380;48.312;9.246;2024-01-06T09:58:35;3.17;;;1.92;;
1753;SDS011;58380;48.312;9.246;2024-01-06T10:01:38;4.20;;;1.30;;
1753;SDS011;58380;48.312;9.246;2024-01-06T10:04:39;4.30;;;1.20;;
1753;SDS011;58380;48.312;9.246;2024-01-06T10:07:47;3.78;;;1.13;;
1753;SDS011;58380;48.312;9.246;2024-01-06T10:10:48;3.03;;;1.20;;
1753;SDS011;58380;48.312;9.246;2024-01-06T10:13:52;3.70;;;1.58;;
1753;SDS011;58380;48.312;9.246;2024-01-06T10:16:54;2.70;;;1.00;;
1753;SDS011;58380;48.312;9.246;2024-01-06T10:19:54;5.45;;;1.35;;
1753;SDS011;58380;48.312;9.246;2024-01-06T10:22:54;5.32;;;1.60;;
1753;SDS011;58380;48.312;9.246;2024-01-06T10:25:55;8.75;;;1.60;;
1753;SDS011;58380;48.312;9.246;2024-01-06T10:28:56;4.45;;;1.85;;
1753;SDS011;58380;48.312;9.246;2024-01-06T10:31:58;6.55;;;1.50;;
1753;SDS011;58380;48.312;9.246;2024-01-06T10:35:02;3.70;;;1.63;;
1753;SDS011;58380;48.312;9.246;2024-01-06T10:38:06;5.10;;;1.60;;
1753;SDS011;58380;48.312;9.246;2024-01-06T10:41:07;3.92;;;1.55;;
1753;SDS011;58380;48.312;9.246;2024-01-06T10:44:09;7.60;;;3.28;;
1753;SDS011;58380;48.312;9.246;2024-01-06T10:47:10;9.75;;;4.45;;
1753;SDS011;58380;48.312;9.246;2024-01-06T10:50:13;2.80;;;1.13;;
1753;SDS011;58380;48.312;9.246;2024-01-06T10:53:16;5.20;;;1.20;;
1753;SDS011;58380;48.312;9.246;2024-01-06T10:56:17;4.70;;;1.60;;
1753;SDS011;58380;48.312;9.246;2024-01-06T10:59:20;5.30;;;1.50;;
1753;SDS011;58380;48.312;9.246;2024-01-06T11:02:25;4.43;;;1.50;;
1753;SDS011;58380;48.312;9.246;2024-01-06T11:05:27;3.78;;;1.30;;
1753;SDS011;58380;48.312;9.246;2024-01-06T11:08:28;1.60;;;1.02;;
1753;SDS011;58380;48.312;9.246;2024-01-06T11:11:33;5.65;;;1.90;;
1753;SDS011;58380;48.312;9.246;2024-01-06T11:14:37;7.65;;;3.05;;
1753;SDS011;58380;48.312;9.246;2024-01-06T11:17:51;2.72;;;1.40;;
1753;SDS011;58380;48.312;9.246;2024-01-06T11:24:14;3.78;;;2.08;;
1753;SDS011;58380;48.312;9.246;2024-01-06T11:27:22;4.95;;;1.60;;
1753;SDS011;58380;48.312;9.246;2024-01-06T11:30:30;3.15;;;1.58;;
1753;SDS011;58380;48.312;9.246;2024-01-06T11:33:30;2.65;;;1.63;;
1753;SDS011;58380;48.312;9.246;2024-01-06T11:36:30;4.32;;;1.77;;
1753;SDS011;58380;48.312;9.246;2024-01-06T11:39:37;5.25;;;1.45;;
1753;SDS011;58380;48.312;9.246;2024-01-06T11:42:41;4.05;;;2.13;;
1753;SDS011;58380;48.312;9.246;2024-01-06T11:45:43;3.25;;;1.10;;
1753;SDS011;58380;48.312;9.246;2024-01-06T11:48:43;4.70;;;1.60;;
1753;SDS011;58380;48.312;9.246;2024-01-06T11:51:50;4.97;;;2.20;;
1753;SDS011;58380;48.312;9.246;2024-01-06T11:54:54;3.15;;;1.48;;
1753;SDS011;58380;48.312;9.246;2024-01-06T11:57:55;4.38;;;2.13;;
1753;SDS011;58380;48.312;9.246;2024-01-06T12:00:57;2.67;;;1.20;;
1753;SDS011;58380;48.312;9.246;2024-01-06T12:03:58;2.38;;;1.52;;
1753;SDS011;58380;48.312;9.246;2024-01-06T12:07:05;4.53;;;2.15;;
1753;SDS011;58380;48.312;9.246;2024-01-06T12:10:09;3.55;;;1.80;;
1753;SDS011;58380;48.312;9.246;2024-01-06T12:13:11;1.58;;;1.00;;
1753;SDS011;58380;48.312;9.246;2024-01-06T12:16:12;4.68;;;2.35;;
1753;SDS011;58380;48.312;9.246;2024-01-06T12:19:12;3.97;;;1.60;;
1753;SDS011;58380;48.312;9.246;2024-01-06T12:22:13;18.77;;;7.78;;
1753;SDS011;58380;48.312;9.246;2024-01-06T12:25:15;3.17;;;1.80;;
1753;SDS011;58380;48.312;9.246;2024-01-06T12:28:16;3.90;;;1.90;;
1753;SDS011;58380;48.312;9.246;2024-01-06T12:31:16;3.85;;;1.98;;
1753;SDS011;58380;48.312;9.246;2024-01-06T12:34:19;4.00;;;1.85;;
1753;SDS011;58380;48.312;9.246;2024-01-06T12:37:22;6.95;;;4.32;;
1753;SDS011;58380;48.312;9.246;2024-01-06T12:40:24;4.57;;;1.88;;
1753;SDS011;58380;48.312;9.246;2024-01-06T12:43:24;3.65;;;1.83;;
1753;SDS011;58380;48.312;9.246;2024-01-06T12:46:25;3.17;;;2.30;;
1753;SDS011;58380;48.312;9.246;2024-01-06T12:49:26;3.30;;;1.85;;
1753;SDS011;58380;48.312;9.246;2024-01-06T12:52:27;3.67;;;1.63;;
1753;SDS011;58380;48.312;9.246;2024-01-06T12:55:27;4.30;;;1.90;;
1753;SDS011;58380;48.312;9.246;2024-01-06T12:58:28;4.28;;;2.42;;
1753;SDS011;58380;48.312;9.246;2024-01-06T13:01:29;4.55;;;2.88;;
1753;SDS011;58380;48.312;9.246;2024-01-06T13:04:29;2.75;;;1.60;;
1753;SDS011;58380;48.312;9.246;2024-01-06T13:07:30;2.72;;;1.70;;
1753;SDS011;58380;48.312;9.246;2024-01-06T13:10:31;3.05;;;2.15;;
1753;SDS011;58380;48.312;9.246;2024-01-06T13:13:31;4.47;;;1.83;;
1753;SDS011;58380;48.312;9.246;2024-01-06T13:16:32;6.38;;;3.97;;
1753;SDS011;58380;48.312;9.246;2024-01-06T13:19:32;4.53;;;1.50;;
1753;SDS011;58380;48.312;9.246;2024-01-06T13:22:33;3.70;;;2.15;;
1753;SDS011;58380;48.312;9.246;2024-01-06T13:25:34;4.63;;;2.30;;
1753;SDS011;58380;48.312;9.246;2024-01-06T13:28:37;5.03;;;2.92;;
1753;SDS011;58380;48.312;9.246;2024-01-06T13:31:38;6.45;;;3.25;;
1753;SDS011;58380;48.312;9.246;2024-01-06T13:34:39;5.47;;;3.35;;
1753;SDS011;58380;48.312;9.246;2024-01-06T13:37:40;6.30;;;2.60;;
1753;SDS011;58380;48.312;9.246;2024-01-06T13:40:42;4.65;;;2.40;;
1753;SDS011;58380;48.312;9.246;2024-01-06T13:43:43;7.22;;;3.17;;
1753;SDS011;58380;48.312;9.246;2024-01-06T13:46:43;5.90;;;3.00;;
1753;SDS011;58380;48.312;9.246;2024-01-06T13:49:44;5.03;;;2.22;;
1753;SDS011;58380;48.312;9.246;2024-01-06T13:52:45;4.90;;;2.95;;
1753;SDS011;58380;48.312;9.246;2024-01-06T13:55:45;4.50;;;1.60;;
1753;SDS011;58380;48.312;9.246;2024-01-06T13:58:46;4.97;;;1.90;;
1753;SDS011;58380;48.312;9.246;2024-01-06T14:01:47;5.22;;;3.65;;
1753;SDS011;58380;48.312;9.246;2024-01-06T14:04:47;5.30;;;4.07;;
1753;SDS011;58380;48.312;9.246;2024-01-06T14:07:48;4.65;;;3.58;;
1753;SDS011;58380;48.312;9.246;2024-01-06T14:10:50;6.25;;;3.63;;
1753;SDS011;58380;48.312;9.246;2024-01-06T14:13:51;6.28;;;3.38;;
1753;SDS011;58380;48.312;9.246;2024-01-06T14:16:52;3.00;;;1.88;;
1753;SDS011;58380;48.312;9.246;2024-01-06T14:19:52;3.10;;;2.03;;
1753;SDS011;58380;48.312;9.246;2024-01-06T14:22:53;2.17;;;1.55;;
1753;SDS011;58380;48.312;9.246;2024-01-06T14:25:53;4.43;;;1.73;;
1753;SDS011;58380;48.312;9.246;2024-01-06T14:28:53;4.43;;;2.55;;
1753;SDS011;58380;48.312;9.246;2024-01-06T14:31:54;1.95;;;1.52;;
1753;SDS011;58380;48.312;9.246;2024-01-06T14:34:54;2.95;;;1.80;;
1753;SDS011;58380;48.312;9.246;2024-01-06T14:37:55;3.35;;;2.42;;
1753;SDS011;58380;48.312;9.246;2024-01-06T14:40:56;3.03;;;1.35;;
1753;SDS011;58380;48.312;9.246;2024-01-06T14:43:57;3.03;;;1.70;;
1753;SDS011;58380;48.312;9.246;2024-01-06T14:46:57;3.88;;;2.90;;
1753;SDS011;58380;48.312;9.246;2024-01-06T14:49:58;3.25;;;1.70;;
1753;SDS011;58380;48.312;9.246;2024-01-06T14:52:58;3.95;;;1.90;;
1753;SDS011;58380;48.312;9.246;2024-01-06T14:56:00;2.00;;;1.30;;
1753;SDS011;58380;48.312;9.246;2024-01-06T14:59:01;2.60;;;1.50;;
1753;SDS011;58380;48.312;9.246;2024-01-06T15:02:01;6.03;;;3.67;;
1753;SDS011;58380;48.312;9.246;2024-01-06T15:05:02;4.60;;;2.83;;
1753;SDS011;58380;48.312;9.246;2024-01-06T15:08:04;3.80;;;2.55;;
1753;SDS011;58380;48.312;9.246;2024-01-06T15:11:05;6.07;;;4.10;;
1753;SDS011;58380;48.312;9.246;2024-01-06T15:14:06;8.50;;;3.95;;
1753;SDS011;58380;48.312;9.246;2024-01-06T15:17:08;6.15;;;3.83;;
1753;SDS011;58380;48.312;9.246;2024-01-06T15:20:09;6.82;;;3.60;;
1753;SDS011;58380;48.312;9.246;2024-01-06T15:23:11;9.10;;;5.05;;
1753;SDS011;58380;48.312;9.246;2024-01-06T15:26:20;5.82;;;2.25;;
1753;SDS011;58380;48.312;9.246;2024-01-06T15:29:24;3.47;;;2.22;;
1753;SDS011;58380;48.312;9.246;2024-01-06T15:32:25;5.63;;;2.88;;
1753;SDS011;58380;48.312;9.246;2024-01-06T15:35:25;3.47;;;1.70;;
1753;SDS011;58380;48.312;9.246;2024-01-06T15:38:25;5.55;;;2.70;;
1753;SDS011;58380;48.312;9.246;2024-01-06T15:41:27;4.88;;;2.72;;
1753;SDS011;58380;48.312;9.246;2024-01-06T15:44:27;9.80;;;5.90;;
1753;SDS011;58380;48.312;9.246;2024-01-06T15:47:28;8.48;;;5.60;;
1753;SDS011;58380;48.312;9.246;2024-01-06T15:50:28;8.70;;;5.65;;
1753;SDS011;58380;48.312;9.246;2024-01-06T15:53:28;11.55;;;7.80;;
1753;SDS011;58380;48.312;9.246;2024-01-06T15:56:29;10.98;;;7.30;;
1753;SDS011;58380;48.312;9.246;2024-01-06T15:59:29;11.25;;;7.13;;
1753;SDS011;58380;48.312;9.246;2024-01-06T16:02:30;12.70;;;8.35;;
1753;SDS011;58380;48.312;9.246;2024-01-06T16:05:31;9.25;;;6.10;;
1753;SDS011;58380;48.312;9.246;2024-01-06T16:08:32;8.10;;;5.35;;
1753;SDS011;58380;48.312;9.246;2024-01-06T16:11:43;8.23;;;5.47;;
1753;SDS011;58380;48.312;9.246;2024-01-06T16:19:13;9.18;;;5.68;;
1753;SDS011;58380;48.312;9.246;2024-01-06T16:22:14;5.85;;;3.92;;
1753;SDS011;58380;48.312;9.246;2024-01-06T16:25:14;8.80;;;4.85;;
1753;SDS011;58380;48.312;9.246;2024-01-06T16:28:14;5.25;;;3.45;;
1753;SDS011;58380;48.312;9.246;2024-01-06T16:31:15;4.53;;;2.58;;
1753;SDS011;58380;48.312;9.246;2024-01-06T16:34:15;4.38;;;2.75;;
1753;SDS011;58380;48.312;9.246;2024-01-06T16:37:16;4.47;;;2.75;;
1753;SDS011;58380;48.312;9.246;2024-01-06T16:40:17;5.15;;;3.25;;
1753;SDS011;58380;48.312;9.246;2024-01-06T16:43:18;7.43;;;4.38;;
1753;SDS011;58380;48.312;9.246;2024-01-06T16:46:19;5.93;;;3.60;;
1753;SDS011;58380;48.312;9.246;2024-01-06T16:49:19;4.80;;;3.20;;
1753;SDS011;58380;48.312;9.246;2024-01-06T16:52:20;5.18;;;3.22;;
1753;SDS011;58380;48.312;9.246;2024-01-06T16:55:20;6.53;;;3.80;;
1753;SDS011;58380;48.312;9.246;2024-01-06T16:58:20;9.50;;;3.90;;
1753;SDS011;58380;48.312;9.246;2024-01-06T17:01:21;7.05;;;4.57;;
1753;SDS011;58380;48.312;9.246;2024-01-06T17:04:22;6.22;;;3.95;;
1753;SDS011;58380;48.312;9.246;2024-01-06T17:07:23;8.75;;;4.68;;
1753;SDS011;58380;48.312;9.246;2024-01-06T17:10:23;5.95;;;3.30;;
1753;SDS011;58380;48.312;9.246;2024-01-06T17:13:24;6.03;;;4.55;;
1753;SDS011;58380;48.312;9.246;2024-01-06T17:16:24;6.63;;;5.00;;
1753;SDS011;58380;48.312;9.246;2024-01-06T17:19:24;8.40;;;5.97;;
1753;SDS011;58380;48.312;9.246;2024-01-06T17:22:25;7.78;;;5.75;;
1753;SDS011;58380;48.312;9.246;2024-01-06T17:25:26;9.73;;;5.80;;
1753;SDS011;58380;48.312;9.246;2024-01-06T17:28:26;9.07;;;6.13;;
1753;SDS011;58380;48.312;9.246;2024-01-06T17:31:27;9.00;;;5.95;;
1753;SDS011;58380;48.312;9.246;2024-01-06T17:34:28;10.75;;;6.53;;
1753;SDS011;58380;48.312;9.246;2024-01-06T17:37:29;9.75;;;6.22;;
1753;SDS011;58380;48.312;9.246;2024-01-06T17:40:30;15.50;;;8.85;;
1753;SDS011;58380;48.312;9.246;2024-01-06T17:43:31;14.70;;;8.68;;
1753;SDS011;58380;48.312;9.246;2024-01-06T17:46:31;11.25;;;7.72;;
1753;SDS011;58380;48.312;9.246;2024-01-06T17:49:33;9.60;;;6.70;;
1753;SDS011;58380;48.312;9.246;2024-01-06T17:52:33;9.93;;;7.40;;
1753;SDS011;58380;48.312;9.246;2024-01-06T17:55:34;9.23;;;6.45;;
1753;SDS011;58380;48.312;9.246;2024-01-06T17:58:35;8.57;;;5.97;;
1753;SDS011;58380;48.312;9.246;2024-01-06T18:01:35;8.13;;;5.75;;
1753;SDS011;58380;48.312;9.246;2024-01-06T18:04:36;8.52;;;6.20;;
1753;SDS011;58380;48.312;9.246;2024-01-06T18:07:36;8.82;;;6.13;;
1753;SDS011;58380;48.312;9.246;2024-01-06T18:10:37;8.70;;;5.90;;
1753;SDS011;58380;48.312;9.246;2024-01-06T18:13:38;9.65;;;6.70;;
1753;SDS011;58380;48.312;9.246;2024-01-06T18:16:39;7.63;;;5.32;;
1753;SDS011;58380;48.312;9.246;2024-01-06T18:19:40;7.43;;;5.90;;
1753;SDS011;58380;48.312;9.246;2024-01-06T18:22:40;9.00;;;6.00;;
1753;SDS011;58380;48.312;9.246;2024-01-06T18:25:40;6.88;;;5.18;;
1753;SDS011;58380;48.312;9.246;2024-01-06T18:28:41;7.25;;;5.25;;
1753;SDS011;58380;48.312;9.246;2024-01-06T18:31:41;8.60;;;5.90;;
1753;SDS011;58380;48.312;9.246;2024-01-06T18:34:42;7.55;;;5.10;;
1753;SDS011;58380;48.312;9.246;2024-01-06T18:37:45;7.05;;;5.43;;
1753;SDS011;58380;48.312;9.246;2024-01-06T18:40:45;6.45;;;4.55;;
1753;SDS011;58380;48.312;9.246;2024-01-06T18:43:58;5.50;;;4.35;;
1753;SDS011;58380;48.312;9.246;2024-01-06T18:46:59;7.18;;;5.32;;
1753;SDS011;58380;48.312;9.246;2024-01-06T18:49:59;5.57;;;4.18;;
1753;SDS011;58380;48.312;9.246;2024-01-06T18:53:00;8.48;;;6.05;;
1753;SDS011;58380;48.312;9.246;2024-01-06T18:56:00;11.55;;;8.07;;
1753;SDS011;58380;48.312;9.246;2024-01-06T18:59:01;15.63;;;9.95;;
1753;SDS011;58380;48.312;9.246;2024-01-06T19:02:02;14.43;;;9.63;;
1753;SDS011;58380;48.312;9.246;2024-01-06T19:05:03;19.90;;;12.20;;
1753;SDS011;58380;48.312;9.246;2024-01-06T19:08:04;18.88;;;10.88;;
1753;SDS011;58380;48.312;9.246;2024-01-06T19:11:05;15.25;;;9.77;;
1753;SDS011;58380;48.312;9.246;2024-01-06T19:14:05;14.38;;;9.45;;
1753;SDS011;58380;48.312;9.246;2024-01-06T19:17:06;18.02;;;9.23;;
1753;SDS011;58380;48.312;9.246;2024-01-06T19:20:06;20.13;;;10.80;;
1753;SDS011;58380;48.312;9.246;2024-01-06T19:23:07;15.43;;;9.13;;
1753;SDS011;58380;48.312;9.246;2024-01-06T19:26:08;15.32;;;8.23;;
1753;SDS011;58380;48.312;9.246;2024-01-06T19:29:08;15.15;;;7.63;;
1753;SDS011;58380;48.312;9.246;2024-01-06T19:32:08;10.38;;;7.10;;
1753;SDS011;58380;48.312;9.246;2024-01-06T19:35:09;6.03;;;3.92;;
1753;SDS011;58380;48.312;9.246;2024-01-06T19:38:09;6.97;;;3.38;;
1753;SDS011;58380;48.312;9.246;2024-01-06T19:41:10;5.82;;;3.50;;
1753;SDS011;58380;48.312;9.246;2024-01-06T19:44:10;5.72;;;3.70;;
1753;SDS011;58380;48.312;9.246;2024-01-06T19:47:11;4.85;;;3.03;;
1753;SDS011;58380;48.312;9.246;2024-01-06T19:50:12;4.25;;;3.00;;
1753;SDS011;58380;48.312;9.246;2024-01-06T19:53:13;4.50;;;2.95;;
1753;SDS011;58380;48.312;9.246;2024-01-06T19:56:13;4.07;;;2.83;;
1753;SDS011;58380;48.312;9.246;2024-01-06T19:59:15;4.32;;;3.10;;
1753;SDS011;58380;48.312;9.246;2024-01-06T20:02:15;4.60;;;3.05;;
1753;SDS011;58380;48.312;9.246;2024-01-06T20:05:15;4.25;;;3.15;;
1753;SDS011;58380;48.312;9.246;2024-01-06T20:08:17;4.78;;;2.95;;
1753;SDS011;58380;48.312;9.246;2024-01-06T20:11:17;5.38;;;3.50;;
1753;SDS011;58380;48.312;9.246;2024-01-06T20:14:17;4.75;;;3.25;;
1753;SDS011;58380;48.312;9.246;2024-01-06T20:17:18;5.28;;;3.38;;
1753;SDS011;58380;48.312;9.246;2024-01-06T20:20:19;4.55;;;3.15;;
1753;SDS011;58380;48.312;9.246;2024-01-06T20:23:19;6.05;;;3.80;;
1753;SDS011;58380;48.312;9.246;2024-01-06T20:26:19;5.25;;;3.47;;
1753;SDS011;58380;48.312;9.246;2024-01-06T20:29:20;5.38;;;3.67;;
1753;SDS011;58380;48.312;9.246;2024-01-06T20:32:20;6.68;;;4.13;;
1753;SDS011;58380;48.312;9.246;2024-01-06T20:35:21;6.28;;;4.00;;
1753;SDS011;58380;48.312;9.246;2024-01-06T20:38:21;8.10;;;4.70;;
1753;SDS011;58380;48.312;9.246;2024-01-06T20:41:21;6.28;;;3.88;;
1753;SDS011;58380;48.312;9.246;2024-01-06T20:44:22;8.00;;;4.88;;
1753;SDS011;58380;48.312;9.246;2024-01-06T20:47:24;8.13;;;5.22;;
1753;SDS011;58380;48.312;9.246;2024-01-06T20:50:25;8.50;;;5.43;;
1753;SDS011;58380;48.312;9.246;2024-01-06T20:53:25;11.63;;;6.63;;
1753;SDS011;58380;48.312;9.246;2024-01-06T20:56:25;10.68;;;6.35;;
1753;SDS011;58380;48.312;9.246;2024-01-06T20:59:26;9.75;;;6.47;;
1753;SDS011;58380;48.312;9.246;2024-01-06T21:02:30;10.05;;;6.63;;
1753;SDS011;58380;48.312;9.246;2024-01-06T21:05:30;10.43;;;6.97;;
1753;SDS011;58380;48.312;9.246;2024-01-06T21:08:30;13.07;;;7.13;;
1753;SDS011;58380;48.312;9.246;2024-01-06T21:11:33;10.80;;;7.18;;
1753;SDS011;58380;48.312;9.246;2024-01-06T21:14:33;11.73;;;7.03;;
1753;SDS011;58380;48.312;9.246;2024-01-06T21:17:34;11.50;;;7.28;;
